sensor_id;sensor_type;location;lat;lon;timestamp;pressure;altitude;pressure_sealevel;temperature;humidity
76551;BME280;65393;53.160;18.170;2022-12-15T00:01:54;100298.34;;;-8.03;79.75
76551;BME280;65393;53.160;18.170;2022-12-15T00:04:39;100293.89;;;-8.02;80.13
76551;BME280;65393;53.160;18.170;2022-12-15T00:07:25;100293.06;;;-8.00;79.85
76551;BME280;65393;53.160;18.170;2022-12-15T00:10:10;100292.83;;;-8.03;79.69
76551;BME280;65393;53.160;18.170;2022-12-15T00:12:56;100293.50;;;-8.03;79.57
76551;BME280;65393;53.160;18.170;2022-12-15T00:15:41;100292.90;;;-8.01;79.65
76551;BME280;65393;53.160;18.170;2022-12-15T00:18:27;100296.98;;;-7.97;79.66
76551;BME280;65393;53.160;18.170;2022-12-15T00:21:12;100296.66;;;-7.96;79.64
76551;BME280;65393;53.160;18.170;2022-12-15T00:23:58;100297.61;;;-7.93;79.74
76551;BME280;65393;53.160;18.170;2022-12-15T00:26:43;100301.42;;;-7.86;79.69
76551;BME280;65393;53.160;18.170;2022-12-15T00:29:30;100301.89;;;-7.82;79.60
76551;BME280;65393;53.160;18.170;2022-12-15T00:32:16;100306.23;;;-7.75;79.45
76551;BME280;65393;53.160;18.170;2022-12-15T00:35:01;100302.10;;;-7.74;79.58
76551;BME280;65393;53.160;18.170;2022-12-15T00:37:47;100302.11;;;-7.80;79.21
76551;BME280;65393;53.160;18.170;2022-12-15T00:40:32;100306.15;;;-7.83;79.21
76551;BME280;65393;53.160;18.170;2022-12-15T00:42:59;100308.00;;;-7.85;79.23
76551;BME280;65393;53.160;18.170;2022-12-15T00:45:25;100305.05;;;-7.86;79.06
76551;BME280;65393;53.160;18.170;2022-12-15T00:48:12;100300.27;;;-7.84;79.19
76551;BME280;65393;53.160;18.170;2022-12-15T00:50:40;100300.98;;;-7.84;79.44
76551;BME280;65393;53.160;18.170;2022-12-15T00:53:20;100304.25;;;-7.89;79.01
76551;BME280;65393;53.160;18.170;2022-12-15T00:56:07;100305.52;;;-7.99;79.27
76551;BME280;65393;53.160;18.170;2022-12-15T00:58:52;100311.36;;;-8.10;79.02
76551;BME280;65393;53.160;18.170;2022-12-15T01:01:39;100313.23;;;-8.18;79.33
76551;BME280;65393;53.160;18.170;2022-12-15T01:04:24;100312.41;;;-8.22;79.55
76551;BME280;65393;53.160;18.170;2022-12-15T01:07:09;100318.23;;;-8.29;79.36
76551;BME280;65393;53.160;18.170;2022-12-15T01:09:55;100315.83;;;-8.35;79.30
76551;BME280;65393;53.160;18.170;2022-12-15T01:12:40;100314.42;;;-8.36;79.41
76551;BME280;65393;53.160;18.170;2022-12-15T01:15:26;100311.64;;;-8.37;79.57
76551;BME280;65393;53.160;18.170;2022-12-15T01:18:12;100311.73;;;-8.40;79.48
76551;BME280;65393;53.160;18.170;2022-12-15T01:20:59;100311.84;;;-8.36;79.88
76551;BME280;65393;53.160;18.170;2022-12-15T01:23:26;100312.58;;;-8.34;79.44
76551;BME280;65393;53.160;18.170;2022-12-15T01:25:54;100307.83;;;-8.32;79.55
76551;BME280;65393;53.160;18.170;2022-12-15T01:28:21;100308.93;;;-8.29;79.44
76551;BME280;65393;53.160;18.170;2022-12-15T01:30:49;100306.79;;;-8.26;79.32
76551;BME280;65393;53.160;18.170;2022-12-15T01:33:17;100302.98;;;-8.26;79.12
76551;BME280;65393;53.160;18.170;2022-12-15T01:35:48;100298.06;;;-8.24;79.16
76551;BME280;65393;53.160;18.170;2022-12-15T01:38:20;100299.37;;;-8.20;79.17
76551;BME280;65393;53.160;18.170;2022-12-15T01:40:51;100303.63;;;-8.17;79.07
76551;BME280;65393;53.160;18.170;2022-12-15T01:43:26;100303.28;;;-8.17;78.95
76551;BME280;65393;53.160;18.170;2022-12-15T01:45:55;100303.79;;;-8.17;79.24
76551;BME280;65393;53.160;18.170;2022-12-15T01:48:30;100306.73;;;-8.22;79.16
76551;BME280;65393;53.160;18.170;2022-12-15T01:51:03;100306.14;;;-8.24;79.16
76551;BME280;65393;53.160;18.170;2022-12-15T01:53:34;100302.71;;;-8.30;79.34
76551;BME280;65393;53.160;18.170;2022-12-15T01:56:04;100300.02;;;-8.28;79.15
76551;BME280;65393;53.160;18.170;2022-12-15T01:58:31;100302.66;;;-8.26;79.24
76551;BME280;65393;53.160;18.170;2022-12-15T02:01:00;100303.45;;;-8.28;79.21
76551;BME280;65393;53.160;18.170;2022-12-15T02:03:28;100304.57;;;-8.31;79.08
76551;BME280;65393;53.160;18.170;2022-12-15T02:05:55;100306.11;;;-8.38;79.43
76551;BME280;65393;53.160;18.170;2022-12-15T02:08:23;100305.70;;;-8.39;79.43
76551;BME280;65393;53.160;18.170;2022-12-15T02:14:07;100305.95;;;-8.37;79.64
76551;BME280;65393;53.160;18.170;2022-12-15T02:19:54;100308.50;;;-8.38;79.32
76551;BME280;65393;53.160;18.170;2022-12-15T02:28:23;100312.98;;;-8.49;79.57
76551;BME280;65393;53.160;18.170;2022-12-15T02:31:21;100310.83;;;-8.52;79.37
76551;BME280;65393;53.160;18.170;2022-12-15T02:34:16;100312.14;;;-8.54;79.59
76551;BME280;65393;53.160;18.170;2022-12-15T02:36:47;100317.08;;;-8.55;79.52
76551;BME280;65393;53.160;18.170;2022-12-15T02:39:17;100318.70;;;-8.53;79.58
76551;BME280;65393;53.160;18.170;2022-12-15T02:41:45;100321.83;;;-8.52;79.48
76551;BME280;65393;53.160;18.170;2022-12-15T02:44:21;100321.86;;;-8.51;79.60
76551;BME280;65393;53.160;18.170;2022-12-15T02:55:59;100328.34;;;-8.53;79.19
76551;BME280;65393;53.160;18.170;2022-12-15T02:58:07;100328.44;;;-8.61;79.41
76551;BME280;65393;53.160;18.170;2022-12-15T03:00:41;100336.56;;;-8.64;79.30
76551;BME280;65393;53.160;18.170;2022-12-15T03:03:08;100336.15;;;-8.67;79.40
76551;BME280;65393;53.160;18.170;2022-12-15T03:05:36;100335.27;;;-8.68;79.43
76551;BME280;65393;53.160;18.170;2022-12-15T03:08:03;100335.95;;;-8.68;79.30
76551;BME280;65393;53.160;18.170;2022-12-15T03:10:30;100336.68;;;-8.66;79.52
76551;BME280;65393;53.160;18.170;2022-12-15T03:12:57;100336.30;;;-8.62;79.22
76551;BME280;65393;53.160;18.170;2022-12-15T03:15:24;100342.79;;;-8.59;79.61
76551;BME280;65393;53.160;18.170;2022-12-15T03:17:51;100342.39;;;-8.55;79.26
76551;BME280;65393;53.160;18.170;2022-12-15T03:20:17;100345.27;;;-8.50;79.06
76551;BME280;65393;53.160;18.170;2022-12-15T03:22:44;100347.84;;;-8.50;79.15
76551;BME280;65393;53.160;18.170;2022-12-15T03:25:11;100355.06;;;-8.51;79.24
76551;BME280;65393;53.160;18.170;2022-12-15T03:27:37;100357.17;;;-8.50;79.02
76551;BME280;65393;53.160;18.170;2022-12-15T03:30:05;100357.08;;;-8.47;79.10
76551;BME280;65393;53.160;18.170;2022-12-15T03:32:32;100360.78;;;-8.45;78.95
76551;BME280;65393;53.160;18.170;2022-12-15T03:34:58;100359.64;;;-8.48;78.20
76551;BME280;65393;53.160;18.170;2022-12-15T03:37:26;100358.11;;;-8.52;78.26
76551;BME280;65393;53.160;18.170;2022-12-15T03:39:53;100349.77;;;-8.55;78.28
76551;BME280;65393;53.160;18.170;2022-12-15T03:42:20;100348.73;;;-8.61;77.89
76551;BME280;65393;53.160;18.170;2022-12-15T03:45:07;100352.45;;;-8.68;78.06
76551;BME280;65393;53.160;18.170;2022-12-15T03:47:33;100352.29;;;-8.73;77.97
76551;BME280;65393;53.160;18.170;2022-12-15T03:50:00;100353.60;;;-8.75;77.87
76551;BME280;65393;53.160;18.170;2022-12-15T03:52:27;100355.49;;;-8.74;77.74
76551;BME280;65393;53.160;18.170;2022-12-15T03:54:53;100361.37;;;-8.73;77.70
76551;BME280;65393;53.160;18.170;2022-12-15T03:57:20;100365.38;;;-8.72;77.75
76551;BME280;65393;53.160;18.170;2022-12-15T03:59:47;100368.14;;;-8.77;77.69
76551;BME280;65393;53.160;18.170;2022-12-15T04:02:14;100373.45;;;-8.88;77.85
76551;BME280;65393;53.160;18.170;2022-12-15T04:04:40;100381.61;;;-8.96;77.70
76551;BME280;65393;53.160;18.170;2022-12-15T04:07:07;100382.47;;;-8.96;77.64
76551;BME280;65393;53.160;18.170;2022-12-15T04:09:35;100381.75;;;-9.02;77.52
76551;BME280;65393;53.160;18.170;2022-12-15T04:12:02;100381.73;;;-9.07;77.81
76551;BME280;65393;53.160;18.170;2022-12-15T04:14:29;100385.99;;;-9.08;77.68
76551;BME280;65393;53.160;18.170;2022-12-15T04:16:56;100388.34;;;-9.05;77.68
76551;BME280;65393;53.160;18.170;2022-12-15T04:19:23;100391.43;;;-9.00;77.86
76551;BME280;65393;53.160;18.170;2022-12-15T04:22:08;100399.52;;;-8.95;78.10
76551;BME280;65393;53.160;18.170;2022-12-15T04:24:35;100403.83;;;-8.85;78.32
76551;BME280;65393;53.160;18.170;2022-12-15T04:27:20;100409.00;;;-8.69;78.41
76551;BME280;65393;53.160;18.170;2022-12-15T04:30:06;100411.55;;;-8.55;78.48
76551;BME280;65393;53.160;18.170;2022-12-15T04:32:52;100414.46;;;-8.45;78.45
76551;BME280;65393;53.160;18.170;2022-12-15T04:35:38;100417.38;;;-8.35;78.87
76551;BME280;65393;53.160;18.170;2022-12-15T04:38:24;100421.23;;;-8.27;78.80
76551;BME280;65393;53.160;18.170;2022-12-15T04:41:12;100415.30;;;-8.19;79.03
76551;BME280;65393;53.160;18.170;2022-12-15T04:43:58;100413.21;;;-8.08;78.63
76551;BME280;65393;53.160;18.170;2022-12-15T04:46:44;100410.59;;;-7.93;78.80
76551;BME280;65393;53.160;18.170;2022-12-15T04:49:29;100414.52;;;-7.83;78.48
76551;BME280;65393;53.160;18.170;2022-12-15T04:52:15;100417.55;;;-7.79;78.53
76551;BME280;65393;53.160;18.170;2022-12-15T04:55:00;100415.27;;;-7.75;78.46
76551;BME280;65393;53.160;18.170;2022-12-15T04:57:45;100411.11;;;-7.76;78.26
76551;BME280;65393;53.160;18.170;2022-12-15T05:00:31;100407.33;;;-7.76;78.73
76551;BME280;65393;53.160;18.170;2022-12-15T05:03:16;100409.63;;;-7.74;78.56
76551;BME280;65393;53.160;18.170;2022-12-15T05:06:02;100412.04;;;-7.74;79.31
76551;BME280;65393;53.160;18.170;2022-12-15T05:08:47;100416.61;;;-7.77;79.41
76551;BME280;65393;53.160;18.170;2022-12-15T05:11:33;100420.42;;;-7.81;79.14
76551;BME280;65393;53.160;18.170;2022-12-15T05:14:18;100422.01;;;-7.86;79.36
76551;BME280;65393;53.160;18.170;2022-12-15T05:17:04;100426.44;;;-7.87;79.24
76551;BME280;65393;53.160;18.170;2022-12-15T05:19:49;100430.96;;;-7.86;80.00
76551;BME280;65393;53.160;18.170;2022-12-15T05:22:34;100437.40;;;-7.85;80.83
76551;BME280;65393;53.160;18.170;2022-12-15T05:25:20;100437.86;;;-7.86;81.11
76551;BME280;65393;53.160;18.170;2022-12-15T05:28:05;100442.42;;;-7.89;81.15
76551;BME280;65393;53.160;18.170;2022-12-15T05:30:51;100443.45;;;-7.89;81.22
76551;BME280;65393;53.160;18.170;2022-12-15T05:33:36;100451.33;;;-7.85;81.39
76551;BME280;65393;53.160;18.170;2022-12-15T05:36:03;100455.28;;;-7.85;81.15
76551;BME280;65393;53.160;18.170;2022-12-15T05:38:30;100465.08;;;-7.86;81.36
76551;BME280;65393;53.160;18.170;2022-12-15T05:40:57;100473.05;;;-7.84;81.30
76551;BME280;65393;53.160;18.170;2022-12-15T05:43:24;100475.34;;;-7.82;81.51
76551;BME280;65393;53.160;18.170;2022-12-15T05:45:51;100483.31;;;-7.81;81.26
76551;BME280;65393;53.160;18.170;2022-12-15T05:48:18;100490.15;;;-7.88;81.26
76551;BME280;65393;53.160;18.170;2022-12-15T05:50:45;100488.95;;;-7.98;81.33
76551;BME280;65393;53.160;18.170;2022-12-15T05:53:11;100497.36;;;-8.09;81.07
76551;BME280;65393;53.160;18.170;2022-12-15T05:55:38;100503.16;;;-8.17;81.45
76551;BME280;65393;53.160;18.170;2022-12-15T05:58:05;100506.33;;;-8.31;82.28
76551;BME280;65393;53.160;18.170;2022-12-15T06:00:32;100506.26;;;-8.43;82.45
76551;BME280;65393;53.160;18.170;2022-12-15T06:02:59;100509.90;;;-8.52;82.58
76551;BME280;65393;53.160;18.170;2022-12-15T06:05:25;100504.52;;;-8.58;82.56
76551;BME280;65393;53.160;18.170;2022-12-15T06:07:52;100506.33;;;-8.66;83.56
76551;BME280;65393;53.160;18.170;2022-12-15T06:10:19;100507.45;;;-8.72;83.81
76551;BME280;65393;53.160;18.170;2022-12-15T06:12:45;100508.58;;;-8.74;83.38
76551;BME280;65393;53.160;18.170;2022-12-15T06:15:13;100516.68;;;-8.69;83.35
76551;BME280;65393;53.160;18.170;2022-12-15T06:17:39;100527.30;;;-8.66;83.44
76551;BME280;65393;53.160;18.170;2022-12-15T06:20:06;100534.33;;;-8.62;83.14
76551;BME280;65393;53.160;18.170;2022-12-15T06:22:33;100539.11;;;-8.58;83.07
76551;BME280;65393;53.160;18.170;2022-12-15T06:25:00;100547.14;;;-8.55;82.99
76551;BME280;65393;53.160;18.170;2022-12-15T06:27:27;100548.70;;;-8.54;82.91
76551;BME280;65393;53.160;18.170;2022-12-15T06:29:54;100551.96;;;-8.55;82.80
76551;BME280;65393;53.160;18.170;2022-12-15T06:32:21;100558.93;;;-8.57;82.85
76551;BME280;65393;53.160;18.170;2022-12-15T06:34:47;100561.38;;;-8.61;82.69
76551;BME280;65393;53.160;18.170;2022-12-15T06:37:15;100568.16;;;-8.63;82.23
76551;BME280;65393;53.160;18.170;2022-12-15T06:39:41;100566.57;;;-8.64;82.63
76551;BME280;65393;53.160;18.170;2022-12-15T06:42:08;100574.53;;;-8.63;82.39
76551;BME280;65393;53.160;18.170;2022-12-15T06:44:34;100569.31;;;-8.60;82.04
76551;BME280;65393;53.160;18.170;2022-12-15T06:47:01;100574.21;;;-8.58;82.46
76551;BME280;65393;53.160;18.170;2022-12-15T06:49:29;100576.59;;;-8.54;82.29
76551;BME280;65393;53.160;18.170;2022-12-15T06:51:56;100573.80;;;-8.50;82.08
76551;BME280;65393;53.160;18.170;2022-12-15T06:54:22;100576.88;;;-8.46;81.91
76551;BME280;65393;53.160;18.170;2022-12-15T06:56:50;100578.48;;;-8.45;82.06
76551;BME280;65393;53.160;18.170;2022-12-15T06:59:17;100585.98;;;-8.42;81.99
76551;BME280;65393;53.160;18.170;2022-12-15T07:01:43;100587.98;;;-8.38;81.78
76551;BME280;65393;53.160;18.170;2022-12-15T07:04:10;100598.52;;;-8.38;81.92
76551;BME280;65393;53.160;18.170;2022-12-15T07:06:38;100604.31;;;-8.35;81.74
76551;BME280;65393;53.160;18.170;2022-12-15T07:09:07;100610.80;;;-8.31;81.79
76551;BME280;65393;53.160;18.170;2022-12-15T07:11:35;100612.35;;;-8.26;81.95
76551;BME280;65393;53.160;18.170;2022-12-15T07:14:02;100620.14;;;-8.24;81.33
76551;BME280;65393;53.160;18.170;2022-12-15T07:16:30;100619.24;;;-8.21;81.52
76551;BME280;65393;53.160;18.170;2022-12-15T07:18:57;100623.91;;;-8.15;81.67
76551;BME280;65393;53.160;18.170;2022-12-15T07:21:23;100617.94;;;-8.09;81.44
76551;BME280;65393;53.160;18.170;2022-12-15T07:23:50;100618.56;;;-8.05;81.52
76551;BME280;65393;53.160;18.170;2022-12-15T07:26:17;100623.52;;;-8.01;81.38
76551;BME280;65393;53.160;18.170;2022-12-15T07:28:44;100619.34;;;-7.98;81.26
76551;BME280;65393;53.160;18.170;2022-12-15T07:31:11;100621.34;;;-7.95;81.29
76551;BME280;65393;53.160;18.170;2022-12-15T07:33:38;100621.01;;;-7.89;81.29
76551;BME280;65393;53.160;18.170;2022-12-15T07:36:05;100626.08;;;-7.82;81.16
76551;BME280;65393;53.160;18.170;2022-12-15T07:38:34;100621.59;;;-7.77;81.19
76551;BME280;65393;53.160;18.170;2022-12-15T07:41:03;100628.60;;;-7.74;80.98
76551;BME280;65393;53.160;18.170;2022-12-15T07:43:30;100629.85;;;-7.68;80.84
76551;BME280;65393;53.160;18.170;2022-12-15T07:45:58;100633.11;;;-7.58;80.88
76551;BME280;65393;53.160;18.170;2022-12-15T07:48:25;100631.41;;;-7.52;80.91
76551;BME280;65393;53.160;18.170;2022-12-15T07:50:52;100631.52;;;-7.49;80.85
76551;BME280;65393;53.160;18.170;2022-12-15T07:53:27;100638.31;;;-7.41;81.01
76551;BME280;65393;53.160;18.170;2022-12-15T07:55:55;100639.14;;;-7.37;80.95
76551;BME280;65393;53.160;18.170;2022-12-15T07:58:27;100647.40;;;-7.37;80.61
76551;BME280;65393;53.160;18.170;2022-12-15T08:00:59;100650.73;;;-7.35;80.82
76551;BME280;65393;53.160;18.170;2022-12-15T08:03:26;100657.91;;;-7.31;80.48
76551;BME280;65393;53.160;18.170;2022-12-15T08:05:53;100662.09;;;-7.30;80.31
76551;BME280;65393;53.160;18.170;2022-12-15T08:08:21;100668.34;;;-7.29;80.37
76551;BME280;65393;53.160;18.170;2022-12-15T08:10:48;100673.27;;;-7.26;80.45
76551;BME280;65393;53.160;18.170;2022-12-15T08:13:15;100675.48;;;-7.22;80.43
76551;BME280;65393;53.160;18.170;2022-12-15T08:15:42;100676.45;;;-7.19;80.24
76551;BME280;65393;53.160;18.170;2022-12-15T08:18:09;100676.61;;;-7.14;80.31
76551;BME280;65393;53.160;18.170;2022-12-15T08:20:36;100686.82;;;-7.08;80.26
76551;BME280;65393;53.160;18.170;2022-12-15T08:23:02;100691.91;;;-7.05;80.02
76551;BME280;65393;53.160;18.170;2022-12-15T08:25:29;100694.99;;;-7.05;80.15
76551;BME280;65393;53.160;18.170;2022-12-15T08:27:56;100702.33;;;-7.02;80.14
76551;BME280;65393;53.160;18.170;2022-12-15T08:30:23;100704.23;;;-6.97;80.00
76551;BME280;65393;53.160;18.170;2022-12-15T08:32:53;100710.44;;;-6.92;80.47
76551;BME280;65393;53.160;18.170;2022-12-15T08:35:19;100716.05;;;-6.89;80.03
76551;BME280;65393;53.160;18.170;2022-12-15T08:37:46;100725.48;;;-6.85;80.13
76551;BME280;65393;53.160;18.170;2022-12-15T08:40:13;100729.86;;;-6.84;79.84
76551;BME280;65393;53.160;18.170;2022-12-15T08:42:40;100732.48;;;-6.83;80.29
76551;BME280;65393;53.160;18.170;2022-12-15T08:45:07;100733.20;;;-6.81;79.92
76551;BME280;65393;53.160;18.170;2022-12-15T08:47:40;100736.75;;;-6.78;80.09
76551;BME280;65393;53.160;18.170;2022-12-15T08:50:07;100731.95;;;-6.72;79.91
76551;BME280;65393;53.160;18.170;2022-12-15T08:52:34;100731.08;;;-6.66;80.12
76551;BME280;65393;53.160;18.170;2022-12-15T08:55:01;100725.81;;;-6.64;80.03
76551;BME280;65393;53.160;18.170;2022-12-15T08:57:28;100732.58;;;-6.63;79.90
76551;BME280;65393;53.160;18.170;2022-12-15T08:59:55;100741.15;;;-6.59;80.30
76551;BME280;65393;53.160;18.170;2022-12-15T09:02:21;100746.92;;;-6.56;80.31
76551;BME280;65393;53.160;18.170;2022-12-15T09:04:48;100750.85;;;-6.57;79.99
76551;BME280;65393;53.160;18.170;2022-12-15T09:07:18;100756.16;;;-6.65;79.86
76551;BME280;65393;53.160;18.170;2022-12-15T09:09:45;100759.58;;;-6.72;79.92
76551;BME280;65393;53.160;18.170;2022-12-15T09:12:15;100759.62;;;-6.76;80.34
76551;BME280;65393;53.160;18.170;2022-12-15T09:14:42;100760.69;;;-6.80;80.30
76551;BME280;65393;53.160;18.170;2022-12-15T09:17:14;100765.02;;;-6.85;80.09
76551;BME280;65393;53.160;18.170;2022-12-15T09:19:41;100765.88;;;-6.85;80.37
76551;BME280;65393;53.160;18.170;2022-12-15T09:22:08;100769.77;;;-6.82;80.33
76551;BME280;65393;53.160;18.170;2022-12-15T09:24:35;100767.58;;;-6.80;80.28
76551;BME280;65393;53.160;18.170;2022-12-15T09:27:03;100764.17;;;-6.79;80.34
76551;BME280;65393;53.160;18.170;2022-12-15T09:29:29;100763.52;;;-6.78;80.24
76551;BME280;65393;53.160;18.170;2022-12-15T09:32:00;100760.99;;;-6.81;79.86
76551;BME280;65393;53.160;18.170;2022-12-15T09:34:30;100758.73;;;-6.83;79.97
76551;BME280;65393;53.160;18.170;2022-12-15T09:37:04;100752.94;;;-6.85;79.99
76551;BME280;65393;53.160;18.170;2022-12-15T09:39:34;100755.02;;;-6.85;79.84
76551;BME280;65393;53.160;18.170;2022-12-15T09:42:04;100764.11;;;-6.81;79.81
76551;BME280;65393;53.160;18.170;2022-12-15T09:44:33;100769.64;;;-6.75;80.05
76551;BME280;65393;53.160;18.170;2022-12-15T09:50:23;100754.55;;;-6.72;79.85
76551;BME280;65393;53.160;18.170;2022-12-15T09:52:58;100753.31;;;-6.62;80.25
76551;BME280;65393;53.160;18.170;2022-12-15T09:55:29;100749.67;;;-6.57;80.29
76551;BME280;65393;53.160;18.170;2022-12-15T09:58:05;100753.34;;;-6.56;79.86
76551;BME280;65393;53.160;18.170;2022-12-15T10:00:40;100762.19;;;-6.59;79.41
76551;BME280;65393;53.160;18.170;2022-12-15T10:03:41;100765.47;;;-6.65;79.25
76551;BME280;65393;53.160;18.170;2022-12-15T10:06:18;100770.63;;;-6.66;79.82
76551;BME280;65393;53.160;18.170;2022-12-15T10:08:53;100772.31;;;-6.61;79.56
76551;BME280;65393;53.160;18.170;2022-12-15T10:14:15;100769.91;;;-6.55;79.38
76551;BME280;65393;53.160;18.170;2022-12-15T10:19:44;100766.86;;;-6.54;79.41
76551;BME280;65393;53.160;18.170;2022-12-15T10:22:22;100767.35;;;-6.55;79.58
76551;BME280;65393;53.160;18.170;2022-12-15T10:24:49;100770.55;;;-6.57;79.35
76551;BME280;65393;53.160;18.170;2022-12-15T10:27:42;100770.36;;;-6.58;79.29
76551;BME280;65393;53.160;18.170;2022-12-15T10:30:14;100771.55;;;-6.53;79.38
76551;BME280;65393;53.160;18.170;2022-12-15T10:32:52;100771.83;;;-6.49;79.74
76551;BME280;65393;53.160;18.170;2022-12-15T10:35:32;100772.79;;;-6.46;79.57
76551;BME280;65393;53.160;18.170;2022-12-15T10:38:05;100771.88;;;-6.43;79.35
76551;BME280;65393;53.160;18.170;2022-12-15T10:40:43;100772.24;;;-6.42;79.78
76551;BME280;65393;53.160;18.170;2022-12-15T10:43:16;100772.08;;;-6.42;79.76
76551;BME280;65393;53.160;18.170;2022-12-15T10:45:49;100763.10;;;-6.42;79.50
76551;BME280;65393;53.160;18.170;2022-12-15T10:48:19;100767.39;;;-6.43;79.40
76551;BME280;65393;53.160;18.170;2022-12-15T10:50:46;100767.09;;;-6.42;79.77
76551;BME280;65393;53.160;18.170;2022-12-15T10:56:08;100772.48;;;-6.39;79.56
76551;BME280;65393;53.160;18.170;2022-12-15T10:58:50;100780.28;;;-6.39;79.94
76551;BME280;65393;53.160;18.170;2022-12-15T11:01:30;100783.19;;;-6.39;79.74
76551;BME280;65393;53.160;18.170;2022-12-15T11:03:57;100785.95;;;-6.40;79.86
76551;BME280;65393;53.160;18.170;2022-12-15T11:06:32;100780.60;;;-6.39;79.89
76551;BME280;65393;53.160;18.170;2022-12-15T11:09:22;100780.16;;;-6.37;79.86
76551;BME280;65393;53.160;18.170;2022-12-15T11:11:50;100785.67;;;-6.33;80.27
76551;BME280;65393;53.160;18.170;2022-12-15T11:14:53;100786.92;;;-6.30;79.95
76551;BME280;65393;53.160;18.170;2022-12-15T11:17:21;100784.37;;;-6.29;79.87
76551;BME280;65393;53.160;18.170;2022-12-15T11:19:53;100785.04;;;-6.30;80.11
76551;BME280;65393;53.160;18.170;2022-12-15T11:22:39;100784.20;;;-6.29;80.09
76551;BME280;65393;53.160;18.170;2022-12-15T11:28:41;100772.75;;;-6.25;79.95
76551;BME280;65393;53.160;18.170;2022-12-15T11:31:21;100767.52;;;-6.22;80.24
76551;BME280;65393;53.160;18.170;2022-12-15T11:33:52;100765.89;;;-6.18;80.09
76551;BME280;65393;53.160;18.170;2022-12-15T11:37:03;100762.52;;;-6.15;80.03
76551;BME280;65393;53.160;18.170;2022-12-15T11:45:20;100775.70;;;-6.02;79.89
76551;BME280;65393;53.160;18.170;2022-12-15T11:47:58;100783.48;;;-5.96;80.24
76551;BME280;65393;53.160;18.170;2022-12-15T11:50:39;100787.10;;;-5.90;80.37
76551;BME280;65393;53.160;18.170;2022-12-15T11:53:21;100784.41;;;-5.86;80.05
76551;BME280;65393;53.160;18.170;2022-12-15T11:56:02;100785.97;;;-5.80;80.09
76551;BME280;65393;53.160;18.170;2022-12-15T12:04:21;100788.52;;;-5.64;80.43
76551;BME280;65393;53.160;18.170;2022-12-15T12:10:10;100792.42;;;-5.60;80.25
76551;BME280;65393;53.160;18.170;2022-12-15T12:12:51;100796.91;;;-5.61;80.32
76551;BME280;65393;53.160;18.170;2022-12-15T12:15:37;100803.24;;;-5.56;80.43
76551;BME280;65393;53.160;18.170;2022-12-15T12:18:20;100812.48;;;-5.48;80.23
76551;BME280;65393;53.160;18.170;2022-12-15T12:23:41;100828.27;;;-5.40;80.32
76551;BME280;65393;53.160;18.170;2022-12-15T12:26:25;100835.77;;;-5.37;80.20
76551;BME280;65393;53.160;18.170;2022-12-15T12:28:59;100834.58;;;-5.37;80.24
76551;BME280;65393;53.160;18.170;2022-12-15T12:34:21;100837.52;;;-5.37;80.09
76551;BME280;65393;53.160;18.170;2022-12-15T12:36:51;100834.77;;;-5.36;80.21
76551;BME280;65393;53.160;18.170;2022-12-15T12:39:22;100840.52;;;-5.35;79.92
76551;BME280;65393;53.160;18.170;2022-12-15T12:42:06;100845.20;;;-5.35;79.91
76551;BME280;65393;53.160;18.170;2022-12-15T12:44:36;100847.70;;;-5.38;79.70
76551;BME280;65393;53.160;18.170;2022-12-15T12:47:13;100848.01;;;-5.39;80.00
76551;BME280;65393;53.160;18.170;2022-12-15T12:49:49;100843.81;;;-5.41;80.17
76551;BME280;65393;53.160;18.170;2022-12-15T12:52:36;100842.16;;;-5.44;80.02
76551;BME280;65393;53.160;18.170;2022-12-15T12:57:52;100845.55;;;-5.46;80.04
76551;BME280;65393;53.160;18.170;2022-12-15T13:00:25;100847.18;;;-5.44;80.36
76551;BME280;65393;53.160;18.170;2022-12-15T13:10:41;100850.20;;;-5.29;80.18
76551;BME280;65393;53.160;18.170;2022-12-15T13:16:18;100850.02;;;-5.23;80.14
76551;BME280;65393;53.160;18.170;2022-12-15T13:19:05;100848.12;;;-5.16;80.13
76551;BME280;65393;53.160;18.170;2022-12-15T13:29:35;100870.00;;;-5.01;80.06
76551;BME280;65393;53.160;18.170;2022-12-15T13:32:02;100868.49;;;-4.99;79.95
76551;BME280;65393;53.160;18.170;2022-12-15T13:34:35;100869.65;;;-4.94;79.98
76551;BME280;65393;53.160;18.170;2022-12-15T13:37:15;100865.06;;;-4.92;79.86
76551;BME280;65393;53.160;18.170;2022-12-15T13:39:54;100862.02;;;-4.89;79.90
76551;BME280;65393;53.160;18.170;2022-12-15T13:42:25;100862.02;;;-4.88;79.91
76551;BME280;65393;53.160;18.170;2022-12-15T13:45:02;100864.95;;;-4.89;79.81
76551;BME280;65393;53.160;18.170;2022-12-15T13:47:31;100868.09;;;-4.89;79.83
76551;BME280;65393;53.160;18.170;2022-12-15T13:52:31;100877.19;;;-4.85;79.95
76551;BME280;65393;53.160;18.170;2022-12-15T13:55:03;100878.86;;;-4.80;79.76
76551;BME280;65393;53.160;18.170;2022-12-15T13:57:33;100878.82;;;-4.75;79.66
76551;BME280;65393;53.160;18.170;2022-12-15T14:00:13;100881.33;;;-4.72;79.58
76551;BME280;65393;53.160;18.170;2022-12-15T14:02:46;100884.34;;;-4.70;79.61
76551;BME280;65393;53.160;18.170;2022-12-15T14:12:51;100913.77;;;-4.70;79.79
76551;BME280;65393;53.160;18.170;2022-12-15T14:15:26;100919.30;;;-4.70;79.91
76551;BME280;65393;53.160;18.170;2022-12-15T14:17:55;100931.39;;;-4.71;79.56
76551;BME280;65393;53.160;18.170;2022-12-15T14:20:38;100929.11;;;-4.72;79.77
76551;BME280;65393;53.160;18.170;2022-12-15T14:23:17;100929.98;;;-4.73;79.59
76551;BME280;65393;53.160;18.170;2022-12-15T14:26:06;100929.89;;;-4.75;79.47
76551;BME280;65393;53.160;18.170;2022-12-15T14:28:35;100931.23;;;-4.77;79.48
76551;BME280;65393;53.160;18.170;2022-12-15T14:31:11;100932.70;;;-4.80;79.50
76551;BME280;65393;53.160;18.170;2022-12-15T14:33:43;100937.23;;;-4.85;79.43
76551;BME280;65393;53.160;18.170;2022-12-15T14:36:13;100939.67;;;-4.85;79.67
76551;BME280;65393;53.160;18.170;2022-12-15T14:38:49;100940.44;;;-4.83;79.82
76551;BME280;65393;53.160;18.170;2022-12-15T14:41:20;100948.44;;;-4.81;79.74